createdAt,value
2023-03-20T00:02:00.537Z,97425.13
2023-03-20T00:04:03.257Z,97425.25
2023-03-20T00:06:06.248Z,97429.56
2023-03-20T00:08:09.852Z,97416.69
2023-03-20T00:10:12.649Z,97425.03
2023-03-20T00:12:16.775Z,97424.31
2023-03-20T00:14:22.442Z,97424.25
2023-03-20T00:16:28.100Z,97423.63
2023-03-20T00:18:32.091Z,97428.78
2023-03-20T00:20:34.893Z,97425.06
2023-03-20T00:22:37.837Z,97428.50
2023-03-20T00:24:40.500Z,97435.88
2023-03-20T00:26:44.525Z,97429.16
2023-03-20T00:28:48.653Z,97431.47
2023-03-20T00:30:51.934Z,97430.75
2023-03-20T00:32:54.541Z,97436.06
2023-03-20T00:34:58.487Z,97438.00
2023-03-20T00:37:01.077Z,97435.13
2023-03-20T00:39:04.506Z,97437.69
2023-03-20T00:41:26.107Z,97434.00
2023-03-20T00:43:29.051Z,97431.16
2023-03-20T00:45:35.164Z,97430.88
2023-03-20T00:47:41.361Z,97440.06
2023-03-20T00:49:45.691Z,97440.34
2023-03-20T00:51:50.060Z,97449.28
2023-03-20T00:53:52.627Z,97446.25
2023-03-20T00:55:55.323Z,97440.97
2023-03-20T00:58:00.174Z,97444.81
2023-03-20T01:00:07.560Z,97435.88
2023-03-20T01:02:12.905Z,97437.91
2023-03-20T01:04:19.244Z,97434.69
2023-03-20T01:06:22.966Z,97438.47
2023-03-20T01:08:27.405Z,97440.34
2023-03-20T01:10:34.111Z,97446.81
2023-03-20T01:12:36.753Z,97451.09
2023-03-20T01:14:39.319Z,97442.66
2023-03-20T01:16:42.266Z,97446.22
2023-03-20T01:18:44.840Z,97452.28
2023-03-20T01:20:48.465Z,97447.13
2023-03-20T01:22:51.416Z,97439.19
2023-03-20T01:24:55.323Z,97444.56
2023-03-20T01:26:58.278Z,97439.56
2023-03-20T01:29:00.952Z,97438.75
2023-03-20T01:31:03.622Z,97442.16
2023-03-20T01:33:14.423Z,97444.88
2023-03-20T01:35:19.189Z,97444.03
2023-03-20T01:37:26.916Z,97442.28
2023-03-20T01:39:33.615Z,97443.13
2023-03-20T01:41:37.743Z,97440.59
2023-03-20T01:43:40.787Z,97446.84
2023-03-20T01:45:53.689Z,97453.00
2023-03-20T01:47:58.719Z,97449.56
2023-03-20T01:50:22.402Z,97442.66
2023-03-20T01:52:25.163Z,97442.66
2023-03-20T01:54:31.852Z,97445.16
2023-03-20T01:56:40.026Z,97443.34
2023-03-20T01:58:45.839Z,97439.94
2023-03-20T02:00:49.875Z,97440.81
2023-03-20T02:02:52.619Z,97442.56
2023-03-20T02:04:58.535Z,97450.44
2023-03-20T02:07:01.281Z,97449.69
2023-03-20T02:09:04.418Z,97452.34
2023-03-20T02:11:07.591Z,97450.59
2023-03-20T02:13:11.948Z,97452.25
2023-03-20T02:15:17.086Z,97456.69
2023-03-20T02:17:20.277Z,97451.91
2023-03-20T02:19:29.170Z,97460.06
2023-03-20T02:22:19.377Z,97457.56
2023-03-20T02:24:55.855Z,97459.88
2023-03-20T02:27:07.483Z,97459.84
2023-03-20T02:29:58.023Z,97465.44
2023-03-20T02:32:36.402Z,97462.59
2023-03-20T02:34:57.901Z,97467.25
2023-03-20T02:37:29.443Z,97463.81
2023-03-20T02:39:52.761Z,97462.13
2023-03-20T02:42:00.198Z,97474.25
2023-03-20T02:44:09.710Z,97472.69
2023-03-20T02:46:20.474Z,97472.56
2023-03-20T02:48:33.981Z,97471.75
2023-03-20T02:50:44.533Z,97471.88
2023-03-20T02:52:57.802Z,97473.56
2023-03-20T02:55:15.925Z,97475.63
2023-03-20T02:57:23.345Z,97472.50
2023-03-20T02:59:34.268Z,97476.66
2023-03-20T03:01:42.695Z,97469.59
2023-03-20T03:03:50.394Z,97473.38
2023-03-20T03:05:56.990Z,97468.28
2023-03-20T03:08:03.544Z,97473.63
2023-03-20T03:10:12.444Z,97469.16
2023-03-20T03:12:18.974Z,97471.69
2023-03-20T03:14:31.280Z,97477.88
2023-03-20T03:16:36.912Z,97475.34
2023-03-20T03:18:42.091Z,97471.06
2023-03-20T03:20:47.752Z,97470.19
2023-03-20T03:22:51.342Z,97473.44
2023-03-20T03:24:56.092Z,97482.81
2023-03-20T03:27:01.591Z,97474.88
2023-03-20T03:29:10.998Z,97477.50
2023-03-20T03:31:17.587Z,97479.91
2023-03-20T03:33:23.383Z,97481.94
2023-03-20T03:35:26.195Z,97486.88
2023-03-20T03:37:42.499Z,97487.75
2023-03-20T03:39:53.180Z,97482.25
2023-03-20T03:42:05.921Z,97493.38
2023-03-20T03:44:15.033Z,97487.00
2023-03-20T03:46:23.704Z,97494.47
2023-03-20T03:48:32.050Z,97490.34
2023-03-20T03:50:46.359Z,97489.31
2023-03-20T03:52:52.587Z,97493.69
2023-03-20T03:54:59.111Z,97494.81
2023-03-20T03:57:05.127Z,97501.81
2023-03-20T03:59:12.359Z,97496.41
2023-03-20T04:01:17.604Z,97501.50
2023-03-20T04:03:24.057Z,97497.19
2023-03-20T04:05:31.920Z,97494.88
2023-03-20T04:07:34.620Z,97499.38
2023-03-20T04:09:37.404Z,97499.50
2023-03-20T04:11:40.054Z,97501.34
2023-03-20T04:13:44.375Z,97501.88
2023-03-20T04:15:47.304Z,97502.13
2023-03-20T04:17:50.076Z,97506.34
2023-03-20T04:19:52.762Z,97507.25
2023-03-20T04:21:56.004Z,97508.19
2023-03-20T04:23:58.586Z,97509.66
2023-03-20T04:26:01.842Z,97502.03
2023-03-20T04:28:05.039Z,97505.63
2023-03-20T04:30:10.593Z,97502.03
2023-03-20T04:32:13.516Z,97503.78
2023-03-20T04:34:16.331Z,97508.25
2023-03-20T04:36:18.956Z,97503.91
2023-03-20T04:38:23.065Z,97506.34
2023-03-20T04:40:26.024Z,97510.34
2023-03-20T04:42:28.569Z,97504.59
2023-03-20T04:44:31.197Z,97500.03
2023-03-20T04:46:35.154Z,97486.25
2023-03-20T04:48:37.717Z,97490.69
2023-03-20T04:50:40.371Z,97485.53
2023-03-20T04:52:43.039Z,97484.69
2023-03-20T04:54:45.910Z,97482.03
2023-03-20T04:56:48.770Z,97486.41
2023-03-20T04:58:51.576Z,97485.38
2023-03-20T05:00:54.278Z,97489.84
2023-03-20T05:02:58.315Z,97486.41
2023-03-20T05:05:01.184Z,97496.88
2023-03-20T05:07:03.807Z,97491.63
2023-03-20T05:09:06.882Z,97499.31
2023-03-20T05:11:09.452Z,97501.88
2023-03-20T05:13:12.018Z,97506.78
2023-03-20T05:15:15.158Z,97507.72
2023-03-20T05:17:18.276Z,97510.44
2023-03-20T05:19:22.284Z,97510.41
2023-03-20T05:21:24.884Z,97514.91
2023-03-20T05:23:27.446Z,97511.50
2023-03-20T05:25:30.000Z,97510.56
2023-03-20T05:27:32.585Z,97513.16
2023-03-20T05:29:35.300Z,97514.09
2023-03-20T05:31:37.867Z,97524.47
2023-03-20T05:33:40.487Z,97521.88
2023-03-20T05:35:44.747Z,97526.28
2023-03-20T05:37:47.365Z,97528.88
2023-03-20T05:39:49.906Z,97532.47
2023-03-20T05:41:52.481Z,97532.28
2023-03-20T05:43:55.497Z,97531.50
2023-03-20T05:45:58.124Z,97525.50
2023-03-20T05:48:00.925Z,97528.16
2023-03-20T05:50:03.651Z,97532.47
2023-03-20T05:52:07.967Z,97526.38
2023-03-20T05:54:10.906Z,97521.16
2023-03-20T05:56:16.405Z,97525.44
2023-03-20T05:58:18.962Z,97528.50
2023-03-20T06:00:21.966Z,97527.13
2023-03-20T06:02:24.834Z,97526.19
2023-03-20T06:04:27.400Z,97527.00
2023-03-20T06:06:29.969Z,97536.75
2023-03-20T06:08:36.391Z,97536.63
2023-03-20T06:10:38.991Z,97542.81
2023-03-20T06:12:41.559Z,97545.44
2023-03-20T06:14:44.160Z,97558.69
2023-03-20T06:16:46.841Z,97562.16
2023-03-20T06:18:49.391Z,97557.88
2023-03-20T06:20:53.803Z,97558.69
2023-03-20T06:22:56.465Z,97565.19
2023-03-20T06:25:00.401Z,97564.59
2023-03-20T06:27:02.943Z,97562.78
2023-03-20T06:29:06.201Z,97556.38
2023-03-20T06:31:10.008Z,97572.25
2023-03-20T06:33:12.733Z,97564.28
2023-03-20T06:35:15.713Z,97567.97
2023-03-20T06:37:18.264Z,97570.75
2023-03-20T06:39:20.881Z,97568.13
2023-03-20T06:41:34.223Z,97566.91
2023-03-20T06:43:37.726Z,97564.88
2023-03-20T06:45:40.758Z,97570.34
2023-03-20T06:47:43.661Z,97566.13
2023-03-20T06:49:46.261Z,97566.13
2023-03-20T06:51:48.963Z,97552.66
2023-03-20T06:53:51.609Z,97549.63
2023-03-20T06:55:54.768Z,97556.59
2023-03-20T06:57:58.695Z,97548.53
2023-03-20T07:00:01.399Z,97545.94
2023-03-20T07:02:04.036Z,97553.69
2023-03-20T07:04:07.568Z,97552.66
2023-03-20T07:06:11.660Z,97549.97
2023-03-20T07:08:15.108Z,97553.63
2023-03-20T07:10:18.264Z,97552.66
2023-03-20T07:12:20.867Z,97548.66
2023-03-20T07:14:24.913Z,97557.19
2023-03-20T07:16:27.875Z,97556.38
2023-03-20T07:18:30.916Z,97561.59
2023-03-20T07:20:33.476Z,97557.78
2023-03-20T07:22:36.060Z,97560.41
2023-03-20T07:24:38.645Z,97565.34
2023-03-20T07:26:41.273Z,97578.72
2023-03-20T07:28:43.881Z,97580.31
2023-03-20T07:30:47.800Z,97570.69
2023-03-20T07:32:50.490Z,97571.56
2023-03-20T07:34:53.124Z,97566.16
2023-03-20T07:36:56.352Z,97577.00
2023-03-20T07:38:58.914Z,97577.91
2023-03-20T07:41:01.495Z,97576.59
2023-03-20T07:43:04.075Z,97582.00
2023-03-20T07:45:07.839Z,97585.78
2023-03-20T07:47:11.769Z,97587.44
2023-03-20T07:49:14.423Z,97591.22
2023-03-20T07:51:16.966Z,97589.44
2023-03-20T07:53:19.576Z,97591.50
2023-03-20T07:55:22.256Z,97579.09
2023-03-20T07:57:24.928Z,97587.16
2023-03-20T07:59:27.662Z,97579.72
2023-03-20T08:01:30.412Z,97582.94
2023-03-20T08:03:34.550Z,97586.41
2023-03-20T08:05:37.567Z,97585.22
2023-03-20T08:07:40.534Z,97585.41
2023-03-20T08:09:43.215Z,97583.22
2023-03-20T08:11:46.088Z,97587.44
2023-03-20T08:13:49.023Z,97584.72
2023-03-20T08:15:51.760Z,97579.75
2023-03-20T08:17:54.328Z,97579.88
2023-03-20T08:19:58.229Z,97584.19
2023-03-20T08:22:00.864Z,97579.75
2023-03-20T08:24:03.428Z,97581.94
2023-03-20T08:26:06.250Z,97590.44
2023-03-20T08:28:08.873Z,97585.22
2023-03-20T08:30:13.925Z,97582.69
2023-03-20T08:32:16.679Z,97582.63
2023-03-20T08:34:19.425Z,97579.22
2023-03-20T08:36:23.441Z,97582.28
2023-03-20T08:38:26.624Z,97584.59
2023-03-20T08:40:29.567Z,97585.63
2023-03-20T08:42:32.124Z,97593.38
2023-03-20T08:44:34.690Z,97585.09
2023-03-20T08:46:37.338Z,97591.94
2023-03-20T08:48:40.062Z,97585.72
2023-03-20T08:50:42.976Z,97586.97
2023-03-20T08:52:47.050Z,97589.78
2023-03-20T08:54:49.779Z,97596.34
2023-03-20T08:56:52.403Z,97593.13
2023-03-20T08:58:56.174Z,97590.56
2023-03-20T09:01:02.993Z,97590.78
2023-03-20T09:03:05.862Z,97593.50
2023-03-20T09:05:09.269Z,97590.03
2023-03-20T09:07:11.879Z,97590.31
2023-03-20T09:09:18.497Z,97590.25
2023-03-20T09:11:21.119Z,97588.38
2023-03-20T09:13:27.559Z,97583.63
2023-03-20T09:15:30.527Z,97587.06
2023-03-20T09:17:33.302Z,97586.81
2023-03-20T09:19:39.415Z,97586.13
2023-03-20T09:21:42.063Z,97588.81
2023-03-20T09:23:44.675Z,97586.81
2023-03-20T09:25:49.424Z,97594.56
2023-03-20T09:27:55.174Z,97587.00
2023-03-20T09:29:57.743Z,97600.91
2023-03-20T09:32:00.339Z,97594.50
2023-03-20T09:34:02.922Z,97598.00
2023-03-20T09:36:06.228Z,97594.88
2023-03-20T09:38:09.037Z,97599.66
2023-03-20T09:40:23.985Z,97595.66
2023-03-20T09:42:39.807Z,97592.25
2023-03-20T09:44:52.405Z,97589.25
2023-03-20T09:47:19.398Z,97593.72
2023-03-20T09:49:32.995Z,97587.41
2023-03-20T09:51:42.815Z,97594.19
2023-03-20T09:53:53.074Z,97585.38
2023-03-20T09:55:59.850Z,97585.38
2023-03-20T09:58:11.269Z,97575.56
2023-03-20T10:00:17.524Z,97580.25
2023-03-20T10:02:26.428Z,97587.03
2023-03-20T10:04:31.100Z,97583.34
2023-03-20T10:06:34.570Z,97594.31
2023-03-20T10:08:38.900Z,97594.66
2023-03-20T10:10:51.531Z,97584.44
2023-03-20T10:13:08.735Z,97584.56
2023-03-20T10:15:22.700Z,97587.84
2023-03-20T10:17:36.154Z,97593.44
2023-03-20T10:19:44.632Z,97593.50
2023-03-20T10:21:49.459Z,97600.72
2023-03-20T10:24:01.129Z,97592.28
2023-03-20T10:26:07.786Z,97592.72
2023-03-20T10:28:14.444Z,97596.78
2023-03-20T10:30:28.172Z,97595.91
2023-03-20T10:32:37.646Z,97597.16
2023-03-20T10:34:54.583Z,97592.56
2023-03-20T10:37:10.727Z,97598.06
2023-03-20T10:39:20.784Z,97597.91
2023-03-20T10:41:29.639Z,97599.47
2023-03-20T10:43:38.697Z,97611.19
2023-03-20T10:45:47.440Z,97613.59
2023-03-20T10:47:53.560Z,97608.31
2023-03-20T10:49:59.527Z,97608.31
2023-03-20T10:52:04.956Z,97616.34
2023-03-20T10:54:20.355Z,97602.56
2023-03-20T10:56:30.050Z,97603.81
2023-03-20T10:58:35.242Z,97595.25
2023-03-20T11:00:38.226Z,97589.66
2023-03-20T11:02:42.400Z,97600.91
2023-03-20T11:04:45.546Z,97595.06
2023-03-20T11:06:56.687Z,97588.06
2023-03-20T11:09:12.577Z,97593.25
2023-03-20T11:11:15.821Z,97589.47
2023-03-20T11:13:27.592Z,97582.63
2023-03-20T11:15:34.007Z,97588.94
2023-03-20T11:17:36.552Z,97579.06
2023-03-20T11:19:42.852Z,97576.00
2023-03-20T11:21:48.480Z,97578.91
2023-03-20T11:23:51.926Z,97574.72
2023-03-20T11:25:59.804Z,97576.69
2023-03-20T11:28:21.181Z,97579.38
2023-03-20T11:30:24.354Z,97566.91
2023-03-20T11:32:31.176Z,97563.69
2023-03-20T11:34:37.807Z,97566.25
2023-03-20T11:36:53.056Z,97564.16
2023-03-20T11:39:08.139Z,97570.06
2023-03-20T11:41:18.537Z,97568.03
2023-03-20T11:43:23.577Z,97572.41
2023-03-20T11:45:27.179Z,97562.47
2023-03-20T11:47:34.495Z,97565.22
2023-03-20T11:49:47.896Z,97565.53
2023-03-20T11:51:53.525Z,97562.47
2023-03-20T11:54:01.957Z,97566.47
2023-03-20T11:56:10.863Z,97559.84
2023-03-20T11:58:18.156Z,97563.75
2023-03-20T12:00:24.044Z,97568.97
2023-03-20T12:02:27.218Z,97563.81
2023-03-20T12:04:32.182Z,97564.25
2023-03-20T12:06:44.493Z,97567.75
2023-03-20T12:08:53.292Z,97563.25
2023-03-20T12:11:00.588Z,97554.06
2023-03-20T12:13:07.823Z,97554.66
2023-03-20T12:15:19.811Z,97551.44
2023-03-20T12:17:35.231Z,97558.16
2023-03-20T12:19:39.783Z,97553.41
2023-03-20T12:21:48.523Z,97550.09
2023-03-20T12:23:57.428Z,97551.72
2023-03-20T12:26:04.207Z,97552.75
2023-03-20T12:28:15.461Z,97544.78
2023-03-20T12:30:23.933Z,97542.31
2023-03-20T12:32:37.437Z,97536.81
2023-03-20T12:34:46.939Z,97534.94
2023-03-20T12:36:52.915Z,97535.84
2023-03-20T12:38:56.875Z,97528.63
2023-03-20T12:41:06.639Z,97537.47
2023-03-20T12:43:16.782Z,97528.97
2023-03-20T12:45:22.069Z,97524.38
2023-03-20T12:47:49.968Z,97527.47
2023-03-20T12:50:05.256Z,97530.03
2023-03-20T12:52:15.009Z,97533.44
2023-03-20T12:54:30.928Z,97520.94
2023-03-20T12:56:51.455Z,97520.75
2023-03-20T12:59:00.484Z,97521.34
2023-03-20T13:01:05.724Z,97521.34
2023-03-20T13:03:24.377Z,97533.63
2023-03-20T13:05:38.345Z,97525.50
2023-03-20T13:07:54.454Z,97526.84
2023-03-20T13:10:09.343Z,97510.75
2023-03-20T13:12:21.683Z,97511.06
2023-03-20T13:14:31.368Z,97510.50
2023-03-20T13:16:43.298Z,97514.72
2023-03-20T13:18:59.783Z,97510.59
2023-03-20T13:21:10.609Z,97509.91
2023-03-20T13:23:22.166Z,97506.91
2023-03-20T13:25:46.480Z,97507.97
2023-03-20T13:27:54.966Z,97507.38
2023-03-20T13:30:02.748Z,97501.31
2023-03-20T13:32:20.209Z,97504.31
2023-03-20T13:34:32.782Z,97500.44
2023-03-20T13:36:48.398Z,97499.97
2023-03-20T13:38:57.028Z,97497.13
2023-03-20T13:41:04.305Z,97498.84
2023-03-20T13:43:20.639Z,97498.28
2023-03-20T13:45:32.020Z,97494.47
2023-03-20T13:47:37.331Z,97497.78
2023-03-20T13:49:44.772Z,97492.81
2023-03-20T13:51:54.807Z,97491.75
2023-03-20T13:54:08.391Z,97479.25
2023-03-20T13:56:23.582Z,97491.16
2023-03-20T13:58:44.595Z,97476.84
2023-03-20T14:00:51.146Z,97487.56
2023-03-20T14:03:16.144Z,97484.84
2023-03-20T14:05:21.527Z,97469.34
2023-03-20T14:07:32.523Z,97474.34
2023-03-20T14:09:36.422Z,97474.44
2023-03-20T14:11:40.537Z,97469.34
2023-03-20T14:13:47.260Z,97467.47
2023-03-20T14:15:55.894Z,97470.34
2023-03-20T14:17:58.919Z,97455.72
2023-03-20T14:20:15.020Z,97466.91
2023-03-20T14:22:21.093Z,97465.84
2023-03-20T14:24:27.511Z,97460.19
2023-03-20T14:26:32.446Z,97465.09
2023-03-20T14:28:52.954Z,97466.81
2023-03-20T14:31:21.282Z,97467.22
2023-03-20T14:33:27.570Z,97469.00
2023-03-20T14:35:30.414Z,97471.63
2023-03-20T14:38:00.012Z,97475.78
2023-03-20T14:40:08.370Z,97475.19
2023-03-20T14:42:32.359Z,97476.19
2023-03-20T14:44:52.260Z,97473.34
2023-03-20T14:47:02.766Z,97464.88
2023-03-20T14:49:23.878Z,97458.56
2023-03-20T14:51:35.603Z,97461.19
2023-03-20T14:53:40.729Z,97461.03
2023-03-20T14:55:58.025Z,97464.94
2023-03-20T14:58:06.326Z,97462.19
2023-03-20T15:00:23.810Z,97457.88
2023-03-20T15:02:28.590Z,97460.09
2023-03-20T15:04:38.286Z,97448.97
2023-03-20T15:06:46.605Z,97449.34
2023-03-20T15:08:52.977Z,97439.50
2023-03-20T15:10:57.771Z,97449.09
2023-03-20T15:13:01.136Z,97448.16
2023-03-20T15:15:05.740Z,97460.50
2023-03-20T15:17:19.260Z,97458.59
2023-03-20T15:19:21.844Z,97456.66
2023-03-20T15:21:33.370Z,97457.53
2023-03-20T15:23:35.920Z,97463.13
2023-03-20T15:25:41.331Z,97451.81
2023-03-20T15:27:44.322Z,97455.19
2023-03-20T15:29:50.788Z,97452.63
2023-03-20T15:32:12.376Z,97459.28
2023-03-20T15:34:22.004Z,97451.09
2023-03-20T15:36:28.772Z,97455.19
2023-03-20T15:38:35.304Z,97453.50
2023-03-20T15:40:50.485Z,97445.47
2023-03-20T15:42:54.796Z,97450.38
2023-03-20T15:44:57.582Z,97457.78
2023-03-20T15:47:02.371Z,97452.91
2023-03-20T15:49:05.960Z,97458.88
2023-03-20T15:51:12.316Z,97451.78
2023-03-20T15:53:19.227Z,97457.75
2023-03-20T15:55:25.092Z,97455.53
2023-03-20T15:57:35.558Z,97456.47
2023-03-20T15:59:38.711Z,97462.66
2023-03-20T16:01:41.740Z,97460.19
2023-03-20T16:03:44.852Z,97456.06
2023-03-20T16:05:50.398Z,97447.78
2023-03-20T16:07:54.416Z,97451.84
2023-03-20T16:09:57.025Z,97452.75
2023-03-20T16:12:01.262Z,97454.44
2023-03-20T16:14:04.861Z,97453.81
2023-03-20T16:16:12.744Z,97453.88
2023-03-20T16:18:17.534Z,97450.06
2023-03-20T16:20:20.478Z,97442.50
2023-03-20T16:22:26.420Z,97441.56
2023-03-20T16:24:35.880Z,97440.66
2023-03-20T16:26:41.971Z,97436.94
2023-03-20T16:28:47.227Z,97443.41
2023-03-20T16:30:51.994Z,97440.78
2023-03-20T16:32:59.930Z,97444.81
2023-03-20T16:35:06.821Z,97443.56
2023-03-20T16:37:23.449Z,97443.47
2023-03-20T16:39:29.035Z,97434.41
2023-03-20T16:41:35.023Z,97438.78
2023-03-20T16:43:39.748Z,97433.91
2023-03-20T16:45:45.008Z,97431.38
2023-03-20T16:47:50.065Z,97440.19
2023-03-20T16:50:16.735Z,97443.22
2023-03-20T16:52:26.419Z,97439.16
2023-03-20T16:54:32.887Z,97437.69
2023-03-20T16:56:40.412Z,97440.78
2023-03-20T16:58:46.838Z,97439.31
2023-03-20T17:00:57.904Z,97441.28
2023-03-20T17:03:08.281Z,97448.84
2023-03-20T17:05:14.500Z,97440.84
2023-03-20T17:07:19.419Z,97441.34
2023-03-20T17:09:25.003Z,97442.72
2023-03-20T17:11:32.783Z,97442.03
2023-03-20T17:13:36.702Z,97439.50
2023-03-20T17:15:39.344Z,97442.81
2023-03-20T17:17:42.032Z,97441.47
2023-03-20T17:19:44.852Z,97439.16
2023-03-20T17:21:48.645Z,97445.03
2023-03-20T17:23:51.285Z,97450.69
2023-03-20T17:25:55.053Z,97448.34
2023-03-20T17:27:57.668Z,97447.09
2023-03-20T17:30:01.611Z,97448.69
2023-03-20T17:32:09.877Z,97445.72
2023-03-20T17:34:14.650Z,97448.22
2023-03-20T17:36:20.257Z,97445.78
2023-03-20T17:38:23.593Z,97447.03
2023-03-20T17:40:26.975Z,97453.34
2023-03-20T17:42:31.698Z,97446.94
2023-03-20T17:44:34.266Z,97444.94
2023-03-20T17:46:56.146Z,97448.59
2023-03-20T17:49:03.267Z,97448.97
2023-03-20T17:51:07.861Z,97450.94
2023-03-20T17:53:15.643Z,97448.41
2023-03-20T17:55:18.442Z,97448.53
2023-03-20T17:57:23.432Z,97459.91
2023-03-20T17:59:28.713Z,97451.97
2023-03-20T18:01:32.850Z,97455.59
2023-03-20T18:03:36.936Z,97453.88
2023-03-20T18:05:40.039Z,97457.41
2023-03-20T18:07:42.747Z,97460.09
2023-03-20T18:09:46.521Z,97469.72
2023-03-20T18:11:49.063Z,97463.81
2023-03-20T18:13:51.780Z,97469.19
2023-03-20T18:15:56.221Z,97472.78
2023-03-20T18:17:58.851Z,97478.84
2023-03-20T18:20:02.820Z,97478.06
2023-03-20T18:22:06.017Z,97483.13
2023-03-20T18:24:08.657Z,97486.91
2023-03-20T18:26:18.655Z,97487.81
2023-03-20T18:28:22.977Z,97493.09
2023-03-20T18:30:28.081Z,97488.59
2023-03-20T18:32:30.680Z,97486.97
2023-03-20T18:34:34.031Z,97491.78
2023-03-20T18:36:38.009Z,97488.47
2023-03-20T18:38:40.557Z,97490.09
2023-03-20T18:40:47.088Z,97491.22
2023-03-20T18:42:49.747Z,97493.81
2023-03-20T18:44:52.280Z,97492.25
2023-03-20T18:46:54.850Z,97490.47
2023-03-20T18:48:57.997Z,97486.25
2023-03-20T18:51:01.765Z,97489.44
2023-03-20T18:53:07.701Z,97491.06
2023-03-20T18:55:10.722Z,97490.63
2023-03-20T18:57:17.319Z,97490.84
2023-03-20T18:59:19.860Z,97490.84
2023-03-20T19:01:22.818Z,97498.84
2023-03-20T19:03:25.532Z,97493.53
2023-03-20T19:05:29.566Z,97500.34
2023-03-20T19:07:32.153Z,97496.81
2023-03-20T19:09:36.160Z,97496.16
2023-03-20T19:11:38.771Z,97498.03
2023-03-20T19:13:41.359Z,97498.09
2023-03-20T19:15:45.112Z,97504.19
2023-03-20T19:17:48.980Z,97496.47
2023-03-20T19:19:51.526Z,97498.38
2023-03-20T19:21:57.003Z,97498.38
2023-03-20T19:24:01.235Z,97502.59
2023-03-20T19:26:07.364Z,97495.69
2023-03-20T19:28:21.946Z,97491.53
2023-03-20T19:30:32.070Z,97485.44
2023-03-20T19:32:34.639Z,97475.09
2023-03-20T19:35:31.101Z,97480.34
2023-03-20T19:36:59.767Z,97479.47
2023-03-20T19:39:05.036Z,97482.16
2023-03-20T19:41:09.567Z,97482.22
2023-03-20T19:43:12.182Z,97484.16
2023-03-20T19:45:14.973Z,97479.06
2023-03-20T19:47:17.577Z,97481.69
2023-03-20T19:49:23.552Z,97474.81
2023-03-20T19:51:32.925Z,97477.47
2023-03-20T19:53:35.462Z,97467.97
2023-03-20T19:55:38.900Z,97476.63
2023-03-20T19:57:42.943Z,97477.47
2023-03-20T19:59:45.637Z,97474.94
2023-03-20T20:01:48.269Z,97479.31
2023-03-20T20:03:53.508Z,97480.22
2023-03-20T20:05:56.294Z,97478.50
2023-03-20T20:08:23.235Z,97481.19
2023-03-20T20:10:23.813Z,97475.06
2023-03-20T20:12:26.398Z,97478.50
2023-03-20T20:14:30.376Z,97475.88
2023-03-20T20:16:32.984Z,97468.91
2023-03-20T20:18:35.647Z,97475.78
2023-03-20T20:21:18.492Z,97467.09
2023-03-20T20:23:01.038Z,97468.91
2023-03-20T20:25:03.710Z,97471.59
2023-03-20T20:27:16.896Z,97456.88
2023-03-20T20:29:21.689Z,97457.94
2023-03-20T20:31:29.995Z,97454.59
2023-03-20T20:33:34.256Z,97461.63
2023-03-20T20:36:01.448Z,97457.34
2023-03-20T20:40:24.734Z,97459.13
2023-03-20T20:42:27.332Z,97460.91
2023-03-20T20:44:30.132Z,97459.97
2023-03-20T20:46:34.705Z,97455.78
2023-03-20T20:48:40.070Z,97459.44
2023-03-20T20:50:46.508Z,97458.69
2023-03-20T20:52:49.256Z,97463.13
2023-03-20T20:54:51.914Z,97464.16
2023-03-20T20:56:57.430Z,97465.00
2023-03-20T20:58:59.998Z,97472.06
2023-03-20T21:01:02.741Z,97472.09
2023-03-20T21:03:06.763Z,97472.16
2023-03-20T21:05:10.724Z,97478.31
2023-03-20T21:07:14.279Z,97478.38
2023-03-20T21:09:16.883Z,97476.25
2023-03-20T21:11:19.475Z,97479.09
2023-03-20T21:13:22.189Z,97488.88
2023-03-20T21:15:25.213Z,97485.22
2023-03-20T21:17:28.721Z,97483.72
2023-03-20T21:19:35.660Z,97486.34
2023-03-20T21:21:39.214Z,97494.31
2023-03-20T21:23:42.176Z,97490.00
2023-03-20T21:25:48.010Z,97488.41
2023-03-20T21:27:50.906Z,97480.63
2023-03-20T21:29:53.488Z,97487.72
2023-03-20T21:31:56.169Z,97488.59
2023-03-20T21:34:00.016Z,97485.97
2023-03-20T21:36:04.770Z,97482.22
2023-03-20T21:40:29.989Z,97484.91
2023-03-20T21:42:32.540Z,97477.97
2023-03-20T21:45:21.664Z,97474.72
2023-03-20T21:47:48.548Z,97475.75
2023-03-20T21:54:56.820Z,97474.06
2023-03-20T21:57:07.980Z,97475.69
2023-03-20T22:01:49.365Z,97475.63
2023-03-20T22:06:53.852Z,97473.00
2023-03-20T22:09:19.787Z,97474.56
2023-03-20T22:11:35.034Z,97471.13
2023-03-20T22:18:38.412Z,97471.25
2023-03-20T22:21:13.390Z,97472.25
2023-03-20T22:28:06.989Z,97473.19
2023-03-20T22:32:59.429Z,97465.44
2023-03-20T22:37:53.341Z,97456.13
2023-03-20T22:46:49.989Z,97456.63
2023-03-20T22:48:52.630Z,97450.66
2023-03-20T22:50:55.209Z,97450.78
2023-03-20T22:52:57.775Z,97456.94
2023-03-20T22:55:00.380Z,97451.00
2023-03-20T22:57:04.337Z,97453.72
2023-03-20T22:59:06.908Z,97445.94
2023-03-20T23:01:10.701Z,97450.25
2023-03-20T23:03:22.743Z,97448.56
2023-03-20T23:05:37.367Z,97451.09
2023-03-20T23:07:40.679Z,97445.81
2023-03-20T23:09:43.490Z,97439.59
2023-03-20T23:11:46.213Z,97443.91
2023-03-20T23:13:50.418Z,97449.91
2023-03-20T23:15:53.060Z,97449.91
2023-03-20T23:17:55.670Z,97442.03
2023-03-20T23:20:10.457Z,97448.06
2023-03-20T23:22:14.333Z,97443.69
2023-03-20T23:24:16.930Z,97444.59
2023-03-20T23:26:21.910Z,97442.84
2023-03-20T23:28:24.488Z,97443.75
2023-03-20T23:30:37.940Z,97444.59
2023-03-20T23:32:46.446Z,97440.28
2023-03-20T23:34:49.028Z,97435.13
2023-03-20T23:36:51.641Z,97438.63
2023-03-20T23:38:54.279Z,97436.41
2023-03-20T23:40:57.795Z,97426.22
2023-03-20T23:43:00.469Z,97434.09
2023-03-20T23:45:17.102Z,97427.13
2023-03-20T23:47:21.509Z,97420.75
2023-03-20T23:49:24.928Z,97422.91
2023-03-20T23:51:27.627Z,97427.59
2023-03-20T23:53:30.492Z,97421.47
2023-03-20T23:55:35.416Z,97419.03
2023-03-20T23:57:38.138Z,97426.16
2023-03-20T23:59:40.810Z,97428.84
